Time,TemperatureF,DewpointF,PressureIn,WindDirection,WindDirectionDegrees,WindSpeedMPH,WindSpeedGustMPH,Humidity,HourlyPrecipIn,Conditions,Clouds,dailyrainin,SolarRadiationWatts/m^2,SoftwareType,DateUTC
2013-10-30 00:02:00,38.0,38.0,-100.00,South,184,0.0,4.0,100,0.00,,,0.00,0.000000,,2013-10-30 07:02:00,
2013-10-30 00:42:00,37.0,37.0,-100.00,ESE,121,0.0,4.0,100,0.00,,,0.00,0.000000,,2013-10-30 07:42:00,
2013-10-30 00:52:00,37.0,37.0,-100.00,ESE,121,0.0,4.0,100,0.00,,,0.00,0.000000,,2013-10-30 07:52:00,
2013-10-30 01:02:00,37.0,37.0,-100.00,ESE,121,0.0,4.0,100,0.00,,,0.00,0.000000,,2013-10-30 08:02:00,
2013-10-30 01:42:00,37.0,37.0,-100.00,ENE,69,0.0,3.0,100,0.00,,,0.00,0.000000,,2013-10-30 08:42:00,
2013-10-30 01:52:00,37.0,37.0,-100.00,ENE,69,0.0,3.0,100,0.00,,,0.00,0.000000,,2013-10-30 08:52:00,
2013-10-30 02:02:00,37.0,37.0,-100.00,ENE,69,0.0,3.0,100,0.00,,,0.00,0.000000,,2013-10-30 09:02:00,
2013-10-30 02:43:00,35.0,35.0,-100.00,South,182,0.0,4.0,100,0.00,,,0.00,0.000000,,2013-10-30 09:43:00,
2013-10-30 02:54:00,35.0,35.0,-100.00,South,182,0.0,4.0,100,0.00,,,0.00,0.000000,,2013-10-30 09:54:00,
2013-10-30 03:03:00,35.0,35.0,-100.00,South,182,0.0,4.0,100,0.00,,,0.00,0.000000,,2013-10-30 10:03:00,
2013-10-30 03:43:00,36.0,36.0,-100.00,SE,142,0.0,5.0,100,0.00,,,0.00,0.000000,,2013-10-30 10:43:00,
2013-10-30 03:53:00,36.0,36.0,-100.00,SE,142,0.0,5.0,100,0.00,,,0.00,0.000000,,2013-10-30 10:53:00,
2013-10-30 04:02:00,36.0,36.0,-100.00,SE,142,0.0,5.0,100,0.00,,,0.00,0.000000,,2013-10-30 11:02:00,
2013-10-30 04:42:00,34.0,34.0,-100.00,South,177,0.0,4.0,100,0.00,,,0.00,0.000000,,2013-10-30 11:42:00,
2013-10-30 04:52:00,34.0,34.0,-100.00,South,177,0.0,4.0,100,0.00,,,0.00,0.000000,,2013-10-30 11:52:00,
2013-10-30 05:01:00,34.0,34.0,-100.00,South,177,0.0,4.0,100,0.00,,,0.00,0.000000,,2013-10-30 12:01:00,
2013-10-30 05:42:00,34.0,34.0,-100.00,SE,142,0.0,0.0,100,0.00,,,0.00,0.000000,,2013-10-30 12:42:00,
2013-10-30 05:52:00,34.0,34.0,-100.00,SE,142,0.0,0.0,100,0.00,,,0.00,0.000000,,2013-10-30 12:52:00,
2013-10-30 06:02:00,34.0,34.0,-100.00,SE,142,0.0,0.0,100,0.00,,,0.00,0.000000,,2013-10-30 13:02:00,
2013-10-30 06:42:00,34.0,34.0,-100.00,East,85,0.0,0.0,100,0.00,,,0.00,0.000000,,2013-10-30 13:42:00,
2013-10-30 06:52:00,34.0,34.0,-100.00,East,85,0.0,0.0,100,0.00,,,0.00,0.000000,,2013-10-30 13:52:00,
2013-10-30 07:02:00,34.0,34.0,-100.00,East,85,0.0,0.0,100,0.00,,,0.00,0.000000,,2013-10-30 14:02:00,
2013-10-30 07:42:00,33.0,33.0,-100.00,South,176,0.0,3.0,100,0.00,,,0.00,0.000000,,2013-10-30 14:42:00,
2013-10-30 07:52:00,33.0,33.0,-100.00,South,176,0.0,3.0,100,0.00,,,0.00,0.000000,,2013-10-30 14:52:00,
2013-10-30 08:01:00,33.0,33.0,-100.00,South,176,0.0,3.0,100,0.00,,,0.00,0.000000,,2013-10-30 15:01:00,
2013-10-30 08:43:00,36.0,36.0,-100.00,South,171,1.0,3.0,100,0.00,,,0.00,2.000000,,2013-10-30 15:43:00,
2013-10-30 08:54:00,36.0,36.0,-100.00,South,171,1.0,3.0,100,0.00,,,0.00,2.000000,,2013-10-30 15:54:00,
2013-10-30 09:03:00,36.0,36.0,-100.00,South,171,1.0,3.0,100,0.00,,,0.00,2.000000,,2013-10-30 16:03:00,
2013-10-30 09:23:00,36.0,36.0,-100.00,NW,308,0.0,4.0,100,0.00,,,0.00,35.000000,,2013-10-30 16:23:00,
2013-10-30 09:33:00,36.0,36.0,-100.00,NW,308,0.0,4.0,100,0.00,,,0.00,35.000000,,2013-10-30 16:33:00,
2013-10-30 09:43:00,36.0,36.0,-100.00,NW,308,0.0,4.0,100,0.00,,,0.00,35.000000,,2013-10-30 16:43:00,
2013-10-30 09:53:00,36.0,36.0,-100.00,NW,308,0.0,4.0,100,0.00,,,0.00,35.000000,,2013-10-30 16:53:00,
2013-10-30 10:02:00,36.0,36.0,-100.00,NW,308,0.0,4.0,100,0.00,,,0.00,35.000000,,2013-10-30 17:02:00,
2013-10-30 10:42:00,44.0,44.0,-100.00,NE,36,0.0,4.0,100,0.00,,,0.00,224.000000,,2013-10-30 17:42:00,
2013-10-30 10:52:00,44.0,44.0,-100.00,NE,36,0.0,4.0,100,0.00,,,0.00,224.000000,,2013-10-30 17:52:00,
2013-10-30 11:02:00,44.0,44.0,-100.00,NE,36,0.0,4.0,100,0.00,,,0.00,224.000000,,2013-10-30 18:02:00,
2013-10-30 11:42:00,51.0,45.0,-100.00,NE,36,3.0,5.0,79,0.00,,,0.00,381.000000,,2013-10-30 18:42:00,
2013-10-30 11:52:00,51.0,45.0,-100.00,NE,36,3.0,5.0,79,0.00,,,0.00,381.000000,,2013-10-30 18:52:00,
2013-10-30 12:01:00,51.0,45.0,-100.00,NE,36,3.0,5.0,79,0.00,,,0.00,381.000000,,2013-10-30 19:01:00,
2013-10-30 12:42:00,55.0,46.0,-100.00,West,259,3.0,6.0,72,0.00,,,0.00,479.000000,,2013-10-30 19:42:00,
2013-10-30 12:52:00,55.0,46.0,-100.00,West,259,3.0,6.0,72,0.00,,,0.00,479.000000,,2013-10-30 19:52:00,
2013-10-30 13:02:00,55.0,46.0,-100.00,West,259,3.0,6.0,72,0.00,,,0.00,479.000000,,2013-10-30 20:02:00,
2013-10-30 13:22:00,55.0,45.0,-100.00,SW,227,3.0,9.0,68,0.00,,,0.00,531.000000,,2013-10-30 20:22:00,
2013-10-30 13:32:00,55.0,45.0,-100.00,SW,227,3.0,9.0,68,0.00,,,0.00,531.000000,,2013-10-30 20:32:00,
2013-10-30 13:42:00,55.0,45.0,-100.00,SW,227,3.0,9.0,68,0.00,,,0.00,531.000000,,2013-10-30 20:42:00,
2013-10-30 13:52:00,55.0,45.0,-100.00,SW,227,3.0,9.0,68,0.00,,,0.00,531.000000,,2013-10-30 20:52:00,
2013-10-30 14:01:00,55.0,45.0,-100.00,SW,227,3.0,9.0,68,0.00,,,0.00,531.000000,,2013-10-30 21:01:00,
2013-10-30 14:43:00,58.0,46.0,-100.00,WSW,246,3.0,8.0,65,0.00,,,-99.99,528.000000,,2013-10-30 21:43:00,
2013-10-30 14:53:00,58.0,46.0,-100.00,WSW,246,3.0,8.0,65,0.00,,,-99.99,528.000000,,2013-10-30 21:53:00,
2013-10-30 15:03:00,58.0,46.0,-100.00,WSW,246,3.0,8.0,65,0.00,,,-99.99,528.000000,,2013-10-30 22:03:00,
2013-10-30 15:43:00,56.0,48.0,-100.00,West,265,4.0,9.0,74,0.00,,,0.00,477.000000,,2013-10-30 22:43:00,
2013-10-30 15:54:00,56.0,48.0,-100.00,West,265,4.0,9.0,74,0.00,,,0.00,477.000000,,2013-10-30 22:54:00,
2013-10-30 16:02:00,56.0,48.0,-100.00,West,265,4.0,9.0,74,0.00,,,0.00,477.000000,,2013-10-30 23:02:00,
2013-10-30 16:42:00,58.0,49.0,-100.00,WSW,251,1.0,8.0,71,0.00,,,0.00,332.000000,,2013-10-30 23:42:00,
2013-10-30 16:53:00,58.0,49.0,-100.00,WSW,251,1.0,8.0,71,0.00,,,0.00,332.000000,,2013-10-30 23:53:00,
2013-10-30 17:02:00,58.0,49.0,-100.00,WSW,251,1.0,8.0,71,0.00,,,0.00,332.000000,,2013-10-31 00:02:00,
2013-10-30 17:22:00,52.0,45.0,-100.00,WSW,237,0.0,5.0,77,0.00,,,0.00,154.000000,,2013-10-31 00:22:00,
2013-10-30 17:32:00,52.0,45.0,-100.00,WSW,237,0.0,5.0,77,0.00,,,0.00,154.000000,,2013-10-31 00:32:00,
2013-10-30 17:42:00,52.0,45.0,-100.00,WSW,237,0.0,5.0,77,0.00,,,0.00,154.000000,,2013-10-31 00:42:00,
2013-10-30 17:52:00,52.0,45.0,-100.00,WSW,237,0.0,5.0,77,0.00,,,0.00,154.000000,,2013-10-31 00:52:00,
2013-10-30 18:02:00,52.0,45.0,-100.00,WSW,237,0.0,5.0,77,0.00,,,0.00,154.000000,,2013-10-31 01:02:00,
2013-10-30 18:42:00,51.0,47.0,-100.00,SW,229,0.0,3.0,86,0.00,,,0.00,32.000000,,2013-10-31 01:42:00,
2013-10-30 18:52:00,51.0,47.0,-100.00,SW,229,0.0,3.0,86,0.00,,,0.00,32.000000,,2013-10-31 01:52:00,
2013-10-30 19:02:00,51.0,47.0,-100.00,SW,229,0.0,3.0,86,0.00,,,0.00,32.000000,,2013-10-31 02:02:00,
2013-10-30 19:52:00,48.0,45.0,-100.00,South,172,3.0,4.0,91,0.00,,,0.00,0.000000,,2013-10-31 02:52:00,
2013-10-30 20:02:00,48.0,45.0,-100.00,South,172,3.0,4.0,91,0.00,,,0.00,0.000000,,2013-10-31 03:02:00,
2013-10-30 20:04:00,49.0,47.0,-100.00,SSE,164,0.0,5.0,93,0.00,,,0.00,0.000000,,2013-10-31 03:04:00,
2013-10-30 20:44:00,49.0,47.0,-100.00,SSE,164,0.0,5.0,93,0.00,,,0.00,0.000000,,2013-10-31 03:44:00,
2013-10-30 20:55:00,49.0,47.0,-100.00,SSE,164,0.0,5.0,93,0.00,,,0.00,0.000000,,2013-10-31 03:55:00,
2013-10-30 21:43:00,48.0,46.0,-100.00,SSE,166,0.0,4.0,94,0.00,,,0.00,0.000000,,2013-10-31 04:43:00,
2013-10-30 21:54:00,48.0,46.0,-100.00,SSE,166,0.0,4.0,94,0.00,,,0.00,0.000000,,2013-10-31 04:54:00,
2013-10-30 22:03:00,48.0,46.0,-100.00,SSE,166,0.0,4.0,94,0.00,,,0.00,0.000000,,2013-10-31 05:03:00,
2013-10-30 22:43:00,48.0,48.0,-100.00,SSE,166,0.0,3.0,99,0.00,,,0.00,0.000000,,2013-10-31 05:43:00,
2013-10-30 22:52:00,48.0,48.0,-100.00,SSE,166,0.0,3.0,99,0.00,,,0.00,0.000000,,2013-10-31 05:52:00,
2013-10-30 23:02:00,48.0,48.0,-100.00,SSE,166,0.0,3.0,99,0.00,,,0.00,0.000000,,2013-10-31 06:02:00,
2013-10-30 23:42:00,48.0,46.0,-100.00,SE,146,0.0,4.0,94,0.00,,,0.00,0.000000,,2013-10-31 06:42:00,
2013-10-30 23:53:00,48.0,46.0,-100.00,SE,146,0.0,4.0,94,0.00,,,0.00,0.000000,,2013-10-31 06:53:00,